Denver International Airport
KDEN : now visible

Airfield :











YOU CAN JOIN US ON...

 
LOGIN :

Register | Disclaimer

   EN    FR    IT 

 









Legend :    VFR   Marginal VFR   IFR   Intensive IFR   Very Intensive IFR
Visi :
Ceiling :
>= 8 km
>= 3000ft
5 to 8 km
1000 to 3000 ft
1500m to 5 km
500 to 1000 ft
800 to 1500m
200 to 500 ft
< 800m
< 200 ft
Symbols :   Thunderstorms  Fog  Heavy snow  Heavy precipitations  Wind > 20 kt






- Airport Elevation : 5431 ft
- IATA code : DEN


KDEN - Denver International

CURRENT METAR :
  • 301040Z 08004KT 10SM -SN OVC026 M21/M23 A3004 RMK AO2 SNB40 P0000 T12061233

EXPIRED METARs :
  • 300953Z 10005KT 10SM OVC029 M22/M24 A3005 RMK AO2 SLP287 T12221244
  • 300853Z 12006KT 10SM BKN031 M23/M25 A3006 RMK AO2 SLP288 60000 I1000 I3000 T12281250 56017
  • 300808Z 11006KT 10SM BKN030 M22/M24 A3007 RMK AO2 T12221239
  • 300753Z 10005KT 10SM BKN029 M22/M24 A3007 RMK AO2 SNE41 SLP290 P0000 T12171239
  • 300741Z 10005KT 9SM BKN029 M22/M24 A3008 RMK AO2 SNE41 P0000 T12171239

TAF KDEN
Valid from the 30 at 09:00 until the 31 at 12:00 UTC


300903Z 3009/3112 12007KT 5SM -SN OVC030
FM301300 11007KT P6SM OVC020
FM301800 07006KT P6SM VCSH OVC020
FM302100 02006KT P6SM VCSH OVC020
FM310200 09006KT P6SM BKN030
FM310400 20008KT P6SM SCT030 SCT200
KZDV FIR / North America



MET'MAP, your aeronautical weather chart ! - Copyright ORBIFLY December 2007 - Disclaimer

ORBIFLY MET'MAP TEAM :

Programming & Development : Alexandra Zaïnal
Original concept : Baudouin d'Aumeries
Technical & hardware support : Manuel Goepfert
Assistance : Marc-Olivier Méhu




SOURCES & CREDITS :

   NOAA       Earth
Advisory